X  Chiuso Dati meteorologici dell'aviazione (METAR)     LIML Milano Linate Airport
Temperatura
32°C Temperatura
17°C Punto di rugiada
41% Umidità



Vento
5 KM/H
3 MPH
1 M/S
3 KTS



Calmo
Nord
Condizioni attuali

Sereno Sereno
Pressione 1013.92 (hPa) - 29.94 (inHg)
Visibilità 6.2 (miglio) - 10 (km)
Aeroporto
Codice-Aeroporto LIML

Posizione: Milano Linate Airport
Distanza: 100 (km)

Metar:
LIML 101150Z VRB03KT CAVOK 32/17 Q1014 NOSIG

Ore: 10-08-2020 13:50 CEST